This is the latest recevied weather packets stored in our database for station/object K7YVO. If no packets are shown the sender has not sent any weather packets the latest 10 day(s).
| Time | Temp. | Humidity | Pressure | Rain* | Wind** | Luminosity | Snow |
|---|---|---|---|---|---|---|---|
| 1777058263 | 16.11° C | 35% | 1018.5 hPa | 0 mm | - | 689 W/m² | - |
| 1777057958 | 16.67° C | 37% | 1018.6 hPa | 0 mm | - | 685 W/m² | - |
| 1777057653 | 16.67° C | 40% | 1018.7 hPa | 0 mm | - | 683 W/m² | - |
| 1777057349 | 16.67° C | 39% | 1018.7 hPa | 0 mm | - | 678 W/m² | - |
| 1777057045 | 17.22° C | 30% | 1018.9 hPa | 0 mm | - | 672 W/m² | - |
| 1777056744 | 17.22° C | 30% | 1018.9 hPa | 0 mm | - | 665 W/m² | - |
| 1777056440 | 16.67° C | 35% | 1018.9 hPa | 0 mm | - | 663 W/m² | - |
| 1777056135 | 15° C | 41% | 1018.8 hPa | 0 mm | - | 653 W/m² | - |
| 1777055832 | 16.11° C | 40% | 1019.3 hPa | 0 mm | - | 647 W/m² | - |
| 1777055523 | 17.22° C | 34% | 1019.1 hPa | 0 mm | - | 639 W/m² | - |
| 1777055222 | 16.67° C | 33% | 1019.3 hPa | 0 mm | - | 634 W/m² | - |
| 1777054916 | 16.11° C | 38% | 1019.1 hPa | 0 mm | - | 624 W/m² | - |
| 1777054614 | 16.67° C | 38% | 1019.5 hPa | 0 mm | - | 617 W/m² | - |
| 1777054310 | 16.11° C | 40% | 1019.5 hPa | 0 mm | - | 607 W/m² | - |
| 1777054009 | 15° C | 40% | 1019.4 hPa | 0 mm | - | 599 W/m² | - |
| 1777053709 | 15° C | 41% | 1019.5 hPa | 0 mm | - | 589 W/m² | - |
| 1777053409 | 14.44° C | 45% | 1019.7 hPa | 0 mm | - | 578 W/m² | - |
| 1777053104 | 13.89° C | 44% | 1019.6 hPa | 0 mm | - | 568 W/m² | - |
| 1777052801 | 13.89° C | 46% | 1019.6 hPa | 0 mm | - | 558 W/m² | - |
| 1777052500 | 13.33° C | 51% | 1019.7 hPa | 0 mm | - | 547 W/m² | - |
| 1777052197 | 13.33° C | 46% | 1019.8 hPa | 0 mm | - | 535 W/m² | - |
| 1777051892 | 12.78° C | 47% | 1019.8 hPa | 0 mm | - | 522 W/m² | - |
* Rain latest hour (hover to see other rain measurements)
** Current wind speed in m/s (hover to see current wind gust speed)